createdAt,value
2018-12-09T00:00:42.036Z,99172.41
2018-12-09T00:03:11.163Z,99190.44
2018-12-09T00:05:39.971Z,99169.23
2018-12-09T00:08:08.861Z,99171.34
2018-12-09T00:10:37.650Z,99173.40
2018-12-09T00:13:06.471Z,99176.80
2018-12-09T00:15:35.276Z,99172.35
2018-12-09T00:18:04.095Z,99178.66
2018-12-09T00:20:33.803Z,99183.78
2018-12-09T00:23:02.633Z,99167.03
2018-12-09T00:25:31.494Z,99161.31
2018-12-09T00:28:00.533Z,99170.23
2018-12-09T00:30:31.149Z,99183.63
2018-12-09T00:33:00.000Z,99176.64
2018-12-09T00:35:28.843Z,99170.19
2018-12-09T00:37:59.915Z,99176.64
2018-12-09T00:40:28.796Z,99185.73
2018-12-09T00:42:57.609Z,99188.80
2018-12-09T00:45:26.436Z,99181.16
2018-12-09T00:47:55.265Z,99184.35
2018-12-09T00:50:24.062Z,99186.58
2018-12-09T00:52:52.871Z,99204.25
2018-12-09T00:55:21.763Z,99188.34
2018-12-09T00:57:50.581Z,99191.01
2018-12-09T01:00:19.950Z,99190.64
2018-12-09T01:02:48.763Z,99197.30
2018-12-09T01:05:17.636Z,99197.34
2018-12-09T01:07:46.419Z,99206.47
2018-12-09T01:10:15.219Z,99209.66
2018-12-09T01:12:44.002Z,99206.59
2018-12-09T01:15:13.799Z,99219.14
2018-12-09T01:17:42.638Z,99210.98
2018-12-09T01:20:11.441Z,99215.42
2018-12-09T01:22:40.286Z,99217.16
2018-12-09T01:25:09.179Z,99224.03
2018-12-09T01:27:38.050Z,99229.28
2018-12-09T01:30:06.931Z,99224.52
2018-12-09T01:32:35.778Z,99220.23
2018-12-09T01:35:04.588Z,99220.23
2018-12-09T01:37:33.391Z,99225.40
2018-12-09T01:40:02.216Z,99220.23
2018-12-09T01:42:31.048Z,99228.80
2018-12-09T01:44:59.890Z,99237.84
2018-12-09T01:47:28.676Z,99236.09
2018-12-09T01:49:57.495Z,99243.41
2018-12-09T01:52:26.335Z,99232.55
2018-12-09T01:54:55.155Z,99234.33
2018-12-09T01:57:24.033Z,99249.02
2018-12-09T01:59:52.822Z,99243.37
2018-12-09T02:02:21.711Z,99242.89
2018-12-09T02:04:50.747Z,99242.48
2018-12-09T02:07:19.525Z,99249.34
2018-12-09T02:09:49.452Z,99238.97
2018-12-09T02:12:18.284Z,99236.42
2018-12-09T02:14:47.163Z,99234.20
2018-12-09T02:17:18.113Z,99231.62
2018-12-09T02:19:46.955Z,99230.38
2018-12-09T02:22:15.807Z,99243.29
2018-12-09T02:24:45.223Z,99233.80
2018-12-09T02:27:14.086Z,99226.05
2018-12-09T02:29:42.890Z,99233.36
2018-12-09T02:32:13.317Z,99237.67
2018-12-09T02:34:51.870Z,99224.27
2018-12-09T02:37:20.768Z,99230.33
2018-12-09T02:39:49.729Z,99231.62
2018-12-09T02:42:18.530Z,99235.91
2018-12-09T02:44:47.389Z,99223.38
2018-12-09T02:47:16.478Z,99235.54
2018-12-09T02:49:45.262Z,99233.84
2018-12-09T02:52:14.112Z,99233.44
2018-12-09T02:54:42.960Z,99235.13
2018-12-09T02:57:13.578Z,99230.85
2018-12-09T02:59:42.404Z,99234.73
2018-12-09T03:02:12.273Z,99235.61
2018-12-09T03:04:41.062Z,99236.42
2018-12-09T03:07:09.867Z,99237.39
2018-12-09T03:09:38.752Z,99234.37
2018-12-09T03:12:08.862Z,99242.56
2018-12-09T03:14:37.683Z,99239.42
2018-12-09T03:17:07.571Z,99240.26
2018-12-09T03:19:36.380Z,99243.29
2018-12-09T03:22:05.181Z,99247.13
2018-12-09T03:24:36.923Z,99239.30
2018-12-09T03:27:05.710Z,99242.36
2018-12-09T03:29:34.564Z,99249.23
2018-12-09T03:32:03.377Z,99245.35
2018-12-09T03:34:32.222Z,99240.59
2018-12-09T03:37:01.047Z,99247.45
2018-12-09T03:39:29.856Z,99252.63
2018-12-09T03:41:58.699Z,99259.92
2018-12-09T03:44:27.495Z,99255.28
2018-12-09T03:46:56.317Z,99258.75
2018-12-09T03:49:25.121Z,99258.88
2018-12-09T03:51:53.978Z,99264.85
2018-12-09T03:54:22.847Z,99262.27
2018-12-09T03:56:51.655Z,99258.06
2018-12-09T03:59:20.443Z,99252.45
2018-12-09T04:01:49.540Z,99255.48
2018-12-09T04:04:18.421Z,99270.14
2018-12-09T04:06:47.212Z,99270.70
2018-12-09T04:09:16.034Z,99270.27
2018-12-09T04:11:44.844Z,99265.94
2018-12-09T04:14:13.780Z,99275.31
2018-12-09T04:16:42.497Z,99272.73
2018-12-09T04:19:11.308Z,99284.36
2018-12-09T04:21:40.162Z,99303.30
2018-12-09T04:24:09.954Z,99298.73
2018-12-09T04:26:38.858Z,99299.02
2018-12-09T04:29:07.734Z,99302.28
2018-12-09T04:31:36.559Z,99294.52
2018-12-09T04:34:05.362Z,99297.06
2018-12-09T04:36:34.162Z,99299.08
2018-12-09T04:39:03.022Z,99301.55
2018-12-09T04:41:31.819Z,99303.80
2018-12-09T04:44:01.326Z,99294.36
2018-12-09T04:46:30.231Z,99297.66
2018-12-09T04:48:59.056Z,99295.97
2018-12-09T04:51:37.920Z,99304.53
2018-12-09T04:54:08.383Z,99303.67
2018-12-09T04:56:37.219Z,99312.64
2018-12-09T04:59:16.922Z,99313.04
2018-12-09T05:01:45.772Z,99313.04
2018-12-09T05:04:14.579Z,99308.36
2018-12-09T05:06:43.402Z,99320.39
2018-12-09T05:09:12.210Z,99307.95
2018-12-09T05:11:41.002Z,99313.57
2018-12-09T05:14:09.815Z,99313.13
2018-12-09T05:16:38.630Z,99318.69
2018-12-09T05:19:07.511Z,99314.33
2018-12-09T05:21:36.951Z,99322.08
2018-12-09T05:24:05.964Z,99328.63
2018-12-09T05:26:34.764Z,99328.55
2018-12-09T05:29:03.582Z,99337.05
2018-12-09T05:31:32.436Z,99323.47
2018-12-09T05:34:01.248Z,99331.35
2018-12-09T05:36:30.866Z,99342.58
2018-12-09T05:38:59.655Z,99351.74
2018-12-09T05:41:28.512Z,99339.15
2018-12-09T05:43:57.360Z,99331.80
2018-12-09T05:46:26.488Z,99346.02
2018-12-09T05:48:55.306Z,99361.87
2018-12-09T05:51:25.126Z,99348.02
2018-12-09T05:53:53.950Z,99349.62
2018-12-09T05:56:22.847Z,99356.22
2018-12-09T05:58:51.668Z,99360.09
2018-12-09T06:01:20.495Z,99360.04
2018-12-09T06:03:49.306Z,99365.12
2018-12-09T06:06:18.154Z,99378.84
2018-12-09T06:08:47.055Z,99376.70
2018-12-09T06:11:16.111Z,99382.72
2018-12-09T06:13:44.930Z,99370.78
2018-12-09T06:16:13.741Z,99386.59
2018-12-09T06:18:42.576Z,99390.06
2018-12-09T06:21:11.379Z,99393.05
2018-12-09T06:23:40.202Z,99388.38
2018-12-09T06:26:09.059Z,99395.59
2018-12-09T06:28:37.848Z,99390.34
2018-12-09T06:31:06.642Z,99398.48
2018-12-09T06:33:35.461Z,99386.82
2018-12-09T06:36:04.263Z,99398.77
2018-12-09T06:38:33.074Z,99399.24
2018-12-09T06:41:01.910Z,99393.59
2018-12-09T06:43:31.038Z,99411.76
2018-12-09T06:45:59.878Z,99414.74
2018-12-09T06:48:28.703Z,99419.51
2018-12-09T06:50:57.508Z,99427.17
2018-12-09T06:53:26.342Z,99427.61
2018-12-09T06:55:55.145Z,99449.56
2018-12-09T06:58:24.027Z,99451.66
2018-12-09T07:00:52.858Z,99456.42
2018-12-09T07:03:21.718Z,99467.16
2018-12-09T07:05:50.512Z,99472.23
2018-12-09T07:08:19.330Z,99465.72
2018-12-09T07:10:48.135Z,99473.38
2018-12-09T07:13:16.986Z,99472.05
2018-12-09T07:15:45.814Z,99484.06
2018-12-09T07:18:14.714Z,99494.53
2018-12-09T07:20:43.591Z,99488.56
2018-12-09T07:23:12.404Z,99494.53
2018-12-09T07:25:41.192Z,99497.92
2018-12-09T07:28:10.555Z,99503.97
2018-12-09T07:30:39.377Z,99522.45
2018-12-09T07:33:08.227Z,99513.41
2018-12-09T07:35:37.031Z,99511.18
2018-12-09T07:38:05.861Z,99526.33
2018-12-09T07:40:34.771Z,99525.44
2018-12-09T07:43:03.569Z,99532.16
2018-12-09T07:45:32.422Z,99546.84
2018-12-09T07:48:01.247Z,99544.17
2018-12-09T07:50:30.096Z,99558.95
2018-12-09T07:52:59.011Z,99569.74
2018-12-09T07:55:27.854Z,99585.67
2018-12-09T07:57:57.426Z,99599.30
2018-12-09T08:00:26.902Z,99608.70
2018-12-09T08:02:55.722Z,99608.27
2018-12-09T08:05:25.105Z,99621.28
2018-12-09T08:07:53.934Z,99617.61
2018-12-09T08:10:25.954Z,99605.02
2018-12-09T08:12:54.831Z,99627.28
2018-12-09T08:15:24.144Z,99615.24
2018-12-09T08:17:52.944Z,99632.35
2018-12-09T08:20:21.846Z,99622.09
2018-12-09T08:22:51.192Z,99628.64
2018-12-09T08:25:19.988Z,99639.26
2018-12-09T08:27:48.827Z,99650.06
2018-12-09T08:30:17.614Z,99656.36
2018-12-09T08:32:47.900Z,99663.95
2018-12-09T08:35:17.471Z,99663.45
2018-12-09T08:37:46.281Z,99667.75
2018-12-09T08:40:15.675Z,99682.48
2018-12-09T08:42:44.496Z,99684.01
2018-12-09T08:45:13.280Z,99676.36
2018-12-09T08:47:42.130Z,99675.64
2018-12-09T08:50:10.931Z,99698.19
2018-12-09T08:52:39.734Z,99701.23
2018-12-09T08:55:08.559Z,99703.34
2018-12-09T08:57:37.410Z,99703.66
2018-12-09T09:00:06.194Z,99703.13
2018-12-09T09:02:35.701Z,99706.04
2018-12-09T09:05:04.479Z,99711.75
2018-12-09T09:07:33.258Z,99698.56
2018-12-09T09:10:02.042Z,99695.66
2018-12-09T09:12:31.392Z,99687.30
2018-12-09T09:15:00.253Z,99690.43
2018-12-09T09:17:29.050Z,99686.82
2018-12-09T09:19:57.823Z,99700.83
2018-12-09T09:22:26.598Z,99704.86
2018-12-09T09:24:55.396Z,99705.35
2018-12-09T09:27:24.188Z,99708.48
2018-12-09T09:29:53.571Z,99704.46
2018-12-09T09:32:22.383Z,99712.13
2018-12-09T09:34:51.189Z,99713.37
2018-12-09T09:37:20.066Z,99719.34
2018-12-09T09:39:51.404Z,99719.50
2018-12-09T09:42:20.509Z,99721.25
2018-12-09T09:44:49.295Z,99725.88
2018-12-09T09:47:18.191Z,99739.33
2018-12-09T09:49:48.225Z,99736.50
2018-12-09T09:52:17.097Z,99735.55
2018-12-09T09:54:45.923Z,99745.88
2018-12-09T09:57:15.278Z,99733.77
2018-12-09T09:59:45.058Z,99742.30
2018-12-09T10:02:13.890Z,99743.53
2018-12-09T10:04:42.881Z,99750.20
2018-12-09T10:07:11.881Z,99756.51
2018-12-09T10:09:40.751Z,99761.07
2018-12-09T10:12:10.312Z,99756.47
2018-12-09T10:14:40.367Z,99771.21
2018-12-09T10:17:09.822Z,99771.80
2018-12-09T10:19:39.188Z,99782.19
2018-12-09T10:22:08.004Z,99778.31
2018-12-09T10:24:36.788Z,99782.94
2018-12-09T10:27:05.643Z,99773.66
2018-12-09T10:29:34.472Z,99784.61
2018-12-09T10:32:03.360Z,99786.70
2018-12-09T10:34:38.696Z,99792.91
2018-12-09T10:37:01.047Z,99800.75
2018-12-09T10:39:29.900Z,99802.11
2018-12-09T10:41:58.750Z,99805.03
2018-12-09T10:44:27.552Z,99809.13
2018-12-09T10:46:56.350Z,99814.54
2018-12-09T10:49:25.217Z,99805.75
2018-12-09T10:51:55.052Z,99818.72
2018-12-09T10:54:23.982Z,99815.28
2018-12-09T10:56:53.615Z,99809.44
2018-12-09T10:59:22.461Z,99816.88
2018-12-09T11:01:52.516Z,99816.55
2018-12-09T11:04:21.627Z,99824.63
2018-12-09T11:06:51.056Z,99834.47
2018-12-09T11:09:19.880Z,99839.08
2018-12-09T11:11:48.725Z,99844.80
2018-12-09T11:14:17.692Z,99850.80
2018-12-09T11:16:47.012Z,99856.27
2018-12-09T11:19:16.266Z,99863.06
2018-12-09T11:21:45.195Z,99859.66
2018-12-09T11:24:14.121Z,99865.20
2018-12-09T11:26:42.919Z,99870.86
2018-12-09T11:29:11.735Z,99867.74
2018-12-09T11:31:41.516Z,99874.05
2018-12-09T11:34:10.315Z,99876.70
2018-12-09T11:36:39.175Z,99888.27
2018-12-09T11:39:09.366Z,99884.70
2018-12-09T11:41:36.994Z,99888.70
2018-12-09T11:44:05.850Z,99887.44
2018-12-09T11:46:34.676Z,99894.04
2018-12-09T11:49:03.503Z,99901.21
2018-12-09T11:51:32.328Z,99902.00
2018-12-09T11:54:01.163Z,99908.49
2018-12-09T11:56:30.623Z,99912.61
2018-12-09T11:58:59.503Z,99917.41
2018-12-09T12:01:29.386Z,99914.77
2018-12-09T12:03:58.236Z,99915.70
2018-12-09T12:06:27.051Z,99930.09
2018-12-09T12:08:55.894Z,99932.19
2018-12-09T12:11:26.138Z,99939.91
2018-12-09T12:13:55.647Z,99946.74
2018-12-09T12:16:29.127Z,99953.17
2018-12-09T12:18:57.961Z,99952.19
2018-12-09T12:21:26.804Z,99958.94
2018-12-09T12:24:09.681Z,99956.98
2018-12-09T12:26:38.510Z,99959.26
2018-12-09T12:29:07.531Z,99957.91
2018-12-09T12:31:36.413Z,99966.45
2018-12-09T12:34:05.322Z,99968.44
2018-12-09T12:36:36.174Z,99971.61
2018-12-09T12:39:07.004Z,99975.31
2018-12-09T12:41:37.172Z,99977.95
2018-12-09T12:44:05.997Z,99991.27
2018-12-09T12:46:34.830Z,99986.98
2018-12-09T12:49:03.661Z,100002.31
2018-12-09T12:51:32.571Z,100004.64
2018-12-09T12:54:01.391Z,100006.42
2018-12-09T12:56:30.237Z,100011.47
2018-12-09T12:58:59.044Z,100020.67
2018-12-09T13:01:27.920Z,100027.34
2018-12-09T13:03:56.791Z,100031.41
2018-12-09T13:06:25.653Z,100040.67
2018-12-09T13:08:54.775Z,100041.31
2018-12-09T13:11:23.591Z,100044.67
2018-12-09T13:13:52.412Z,100042.22
2018-12-09T13:16:21.289Z,100054.40
2018-12-09T13:18:50.142Z,100053.20
2018-12-09T13:21:18.983Z,100063.17
2018-12-09T13:23:47.841Z,100060.68
2018-12-09T13:26:16.711Z,100065.58
2018-12-09T13:28:45.624Z,100080.95
2018-12-09T13:31:14.444Z,100081.84
2018-12-09T13:33:43.266Z,100088.41
2018-12-09T13:36:12.142Z,100098.52
2018-12-09T13:38:41.007Z,100102.89
2018-12-09T13:41:11.206Z,100103.30
2018-12-09T13:43:38.752Z,100108.72
2018-12-09T13:46:07.602Z,100120.52
2018-12-09T13:48:36.407Z,100123.51
2018-12-09T13:51:05.231Z,100137.84
2018-12-09T13:53:35.334Z,100149.09
2018-12-09T13:56:04.742Z,100143.33
2018-12-09T13:58:33.540Z,100167.36
2018-12-09T14:01:02.359Z,100171.25
2018-12-09T14:03:31.189Z,100177.56
2018-12-09T14:06:00.023Z,100179.75
2018-12-09T14:08:28.878Z,100193.24
2018-12-09T14:10:57.780Z,100207.93
2018-12-09T14:13:26.617Z,100214.17
2018-12-09T14:15:55.439Z,100222.42
2018-12-09T14:18:24.319Z,100231.52
2018-12-09T14:20:53.869Z,100233.78
2018-12-09T14:23:22.723Z,100244.59
2018-12-09T14:25:51.583Z,100244.83
2018-12-09T14:28:20.388Z,100250.23
2018-12-09T14:30:49.203Z,100251.83
2018-12-09T14:33:18.018Z,100261.50
2018-12-09T14:35:46.831Z,100274.72
2018-12-09T14:38:16.629Z,100271.69
2018-12-09T14:40:45.457Z,100280.80
2018-12-09T14:43:15.077Z,100291.69
2018-12-09T14:45:48.913Z,100298.05
2018-12-09T14:48:13.166Z,100317.76
2018-12-09T14:50:42.031Z,100317.30
2018-12-09T14:53:10.853Z,100327.86
2018-12-09T14:55:39.702Z,100332.45
2018-12-09T14:58:09.163Z,100338.81
2018-12-09T15:00:44.283Z,100337.66
2018-12-09T15:03:13.070Z,100352.13
2018-12-09T15:05:41.968Z,100359.70
2018-12-09T15:08:10.822Z,100363.92
2018-12-09T15:10:39.615Z,100375.25
2018-12-09T15:13:08.532Z,100386.30
2018-12-09T15:15:37.371Z,100397.23
2018-12-09T15:18:06.212Z,100401.01
2018-12-09T15:20:35.021Z,100412.06
2018-12-09T15:23:03.834Z,100407.81
2018-12-09T15:25:32.634Z,100425.98
2018-12-09T15:28:01.520Z,100432.82
2018-12-09T15:30:31.380Z,100437.91
2018-12-09T15:33:00.269Z,100445.64
2018-12-09T15:35:29.101Z,100451.68
2018-12-09T15:37:59.462Z,100454.73
2018-12-09T15:40:28.269Z,100460.88
2018-12-09T15:42:57.086Z,100469.21
2018-12-09T15:45:25.918Z,100478.05
2018-12-09T15:47:54.741Z,100487.58
2018-12-09T15:50:23.644Z,100492.05
2018-12-09T15:52:52.463Z,100500.68
2018-12-09T15:55:21.330Z,100501.47
2018-12-09T15:57:50.126Z,100508.73
2018-12-09T16:00:18.964Z,100515.46
2018-12-09T16:02:47.819Z,100526.88
2018-12-09T16:05:16.671Z,100533.43
2018-12-09T16:07:45.614Z,100543.31
2018-12-09T16:10:14.465Z,100554.21
2018-12-09T16:12:43.294Z,100564.12
2018-12-09T16:15:12.188Z,100563.53
2018-12-09T16:17:41.043Z,100578.29
2018-12-09T16:20:09.908Z,100589.69
2018-12-09T16:22:38.747Z,100587.17
2018-12-09T16:25:08.766Z,100584.39
2018-12-09T16:27:37.614Z,100601.33
2018-12-09T16:30:08.127Z,100608.59
2018-12-09T16:32:36.996Z,100611.08
2018-12-09T16:35:08.076Z,100625.67
2018-12-09T16:37:37.001Z,100637.73
2018-12-09T16:40:06.004Z,100657.87
2018-12-09T16:42:34.781Z,100654.72
2018-12-09T16:45:03.651Z,100659.97
2018-12-09T16:47:33.360Z,100664.02
2018-12-09T16:50:03.127Z,100665.91
2018-12-09T16:52:32.121Z,100671.83
2018-12-09T16:55:00.946Z,100675.02
2018-12-09T16:57:29.773Z,100688.91
2018-12-09T16:59:58.601Z,100701.41
2018-12-09T17:02:27.459Z,100705.16
2018-12-09T17:04:56.491Z,100718.34
2018-12-09T17:07:25.292Z,100719.30
2018-12-09T17:09:54.193Z,100728.83
2018-12-09T17:12:23.156Z,100729.70
2018-12-09T17:14:51.978Z,100739.63
2018-12-09T17:17:21.040Z,100747.09
2018-12-09T17:19:49.963Z,100747.99
2018-12-09T17:31:49.462Z,100775.73
2018-12-09T17:34:18.448Z,100786.08
2018-12-09T17:36:47.337Z,100789.12
2018-12-09T17:39:16.224Z,100801.66
2018-12-09T17:41:45.038Z,100808.16
2018-12-09T17:44:13.985Z,100827.26
2018-12-09T17:46:46.515Z,100828.70
2018-12-09T17:49:15.975Z,100831.45
2018-12-09T17:51:44.912Z,100842.30
2018-12-09T17:54:13.727Z,100847.98
2018-12-09T17:56:42.562Z,100859.34
2018-12-09T17:59:11.384Z,100859.89
2018-12-09T18:01:40.235Z,100868.67
2018-12-09T18:04:09.105Z,100877.94
2018-12-09T18:06:37.903Z,100882.09
2018-12-09T18:09:06.780Z,100891.39
2018-12-09T18:11:35.664Z,100897.56
2018-12-09T18:14:04.446Z,100897.71
2018-12-09T18:16:33.711Z,100902.38
2018-12-09T18:19:02.546Z,100906.10
2018-12-09T18:21:32.471Z,100912.59
2018-12-09T18:24:01.279Z,100919.17
2018-12-09T18:26:30.072Z,100921.48
2018-12-09T18:28:58.891Z,100935.70
2018-12-09T18:31:27.719Z,100938.86
2018-12-09T18:33:56.533Z,100945.06
2018-12-09T18:36:25.330Z,100946.98
2018-12-09T18:38:54.134Z,100952.27
2018-12-09T18:41:22.988Z,100952.17
2018-12-09T18:43:51.816Z,100959.75
2018-12-09T18:46:20.655Z,100963.38
2018-12-09T18:48:49.455Z,100973.44
2018-12-09T18:51:18.302Z,100994.30
2018-12-09T18:53:47.121Z,100997.50
2018-12-09T18:56:15.959Z,101003.94
2018-12-09T18:58:44.805Z,101000.73
2018-12-09T19:01:13.615Z,101005.74
2018-12-09T19:03:42.426Z,101013.88
2018-12-09T19:06:13.081Z,101018.75
2018-12-09T19:08:43.153Z,101032.14
2018-12-09T19:11:12.334Z,101037.91
2018-12-09T19:13:41.124Z,101049.63
2018-12-09T19:16:09.978Z,101051.64
2018-12-09T19:18:38.797Z,101056.03
2018-12-09T19:21:08.203Z,101063.47
2018-12-09T19:23:37.375Z,101067.05
2018-12-09T19:26:06.176Z,101069.20
2018-12-09T19:28:35.058Z,101073.06
2018-12-09T19:31:03.883Z,101077.66
2018-12-09T19:33:32.724Z,101083.33
2018-12-09T19:36:01.623Z,101075.50
2018-12-09T19:38:30.416Z,101067.25
2018-12-09T19:41:01.520Z,101078.08
2018-12-09T19:43:31.221Z,101079.02
2018-12-09T19:46:00.051Z,101088.55
2018-12-09T19:48:33.997Z,101097.32
2018-12-09T19:51:02.836Z,101106.33
2018-12-09T19:53:33.790Z,101102.95
2018-12-09T19:56:04.378Z,101112.24
2018-12-09T19:58:31.548Z,101110.02
2018-12-09T20:01:00.468Z,101108.88
2018-12-09T20:03:29.307Z,101124.18
2018-12-09T20:05:58.852Z,101138.34
2018-12-09T20:08:27.900Z,101137.72
2018-12-09T20:10:59.855Z,101144.02
2018-12-09T20:13:33.864Z,101140.16
2018-12-09T20:16:03.181Z,101144.26
2018-12-09T20:18:41.057Z,101144.28
2018-12-09T20:21:10.102Z,101151.76
2018-12-09T20:23:39.068Z,101156.41
2018-12-09T20:29:18.993Z,101166.58
2018-12-09T20:31:47.811Z,101170.30
2018-12-09T20:34:16.748Z,101173.67
2018-12-09T20:36:45.768Z,101183.30
2018-12-09T20:39:14.656Z,101181.64
2018-12-09T20:41:43.746Z,101181.39
2018-12-09T20:44:13.511Z,101193.73
2018-12-09T20:46:42.414Z,101195.53
2018-12-09T20:49:11.250Z,101192.70
2018-12-09T20:51:40.128Z,101200.02
2018-12-09T20:54:09.048Z,101202.21
2018-12-09T20:56:37.855Z,101217.67
2018-12-09T20:59:06.706Z,101223.32
2018-12-09T21:01:35.628Z,101223.83
2018-12-09T21:04:04.477Z,101214.06
2018-12-09T21:06:33.303Z,101224.10
2018-12-09T21:09:02.172Z,101227.96
2018-12-09T21:11:36.067Z,101241.84
2018-12-09T21:16:59.829Z,101262.56
2018-12-09T21:19:31.055Z,101268.38
2018-12-09T21:22:00.703Z,101276.35
2018-12-09T21:24:30.217Z,101284.20
2018-12-09T21:26:59.713Z,101281.63
2018-12-09T21:29:28.918Z,101275.70
2018-12-09T21:31:59.163Z,101281.25
2018-12-09T21:37:13.349Z,101280.30
2018-12-09T21:39:58.794Z,101282.47
2018-12-09T21:42:27.800Z,101283.24
2018-12-09T21:44:56.774Z,101291.73
2018-12-09T21:47:25.628Z,101283.98
2018-12-09T21:49:54.407Z,101288.48
2018-12-09T21:52:23.211Z,101292.84
2018-12-09T21:54:52.096Z,101302.11
2018-12-09T21:57:20.905Z,101305.17
2018-12-09T21:59:49.749Z,101311.11
2018-12-09T22:02:18.636Z,101323.82
2018-12-09T22:04:47.459Z,101328.70
2018-12-09T22:07:16.315Z,101332.94
2018-12-09T22:09:45.103Z,101344.28
2018-12-09T22:12:13.931Z,101337.97
2018-12-09T22:14:43.312Z,101319.62
2018-12-09T22:17:12.189Z,101322.68
2018-12-09T22:19:41.010Z,101335.54
2018-12-09T22:22:09.875Z,101339.52
2018-12-09T22:24:38.740Z,101350.94
2018-12-09T22:27:08.523Z,101356.45
2018-12-09T22:29:37.532Z,101369.02
2018-12-09T22:32:06.379Z,101369.34
2018-12-09T22:34:35.237Z,101373.47
2018-12-09T22:37:04.036Z,101385.53
2018-12-09T22:39:32.886Z,101395.70
2018-12-09T22:42:01.729Z,101394.72
2018-12-09T22:44:30.544Z,101393.17
2018-12-09T22:46:59.362Z,101399.60
2018-12-09T22:49:28.216Z,101394.42
2018-12-09T22:51:57.017Z,101398.64
2018-12-09T22:54:25.819Z,101401.96
2018-12-09T22:56:54.617Z,101413.10
2018-12-09T22:59:23.535Z,101414.87
2018-12-09T23:01:57.789Z,101417.70
2018-12-09T23:04:26.616Z,101421.88
2018-12-09T23:07:00.379Z,101429.69
2018-12-09T23:09:29.469Z,101429.95
2018-12-09T23:11:58.336Z,101430.43
2018-12-09T23:14:27.196Z,101436.73
2018-12-09T23:16:56.079Z,101444.66
2018-12-09T23:19:24.903Z,101453.38
2018-12-09T23:21:54.450Z,101458.67
2018-12-09T23:24:23.630Z,101457.89
2018-12-09T23:26:52.492Z,101462.55
2018-12-09T23:29:21.327Z,101470.63
2018-12-09T23:31:50.142Z,101469.45
2018-12-09T23:34:19.006Z,101484.11
2018-12-09T23:36:47.877Z,101479.72
2018-12-09T23:39:16.788Z,101477.84
2018-12-09T23:41:45.615Z,101487.87
2018-12-09T23:44:14.439Z,101487.48
2018-12-09T23:46:43.251Z,101483.38
2018-12-09T23:49:12.059Z,101488.80
2018-12-09T23:51:40.854Z,101490.89
2018-12-09T23:54:09.684Z,101489.19
2018-12-09T23:56:38.467Z,101496.69
2018-12-09T23:59:07.296Z,101500.83
